ADDS METAR Data INFO
IDs: Format: Raw Decoded Include TAF

Data at: 1143 UTC 23 Jun 2018

PAFE 231056Z AUTO 00000KT 10SM BKN043 OVC060 10/08 A3017 RMK AO2 SLP228 T01000078
PAFE 230956Z AUTO 12004KT 10SM FEW038 BKN048 OVC060 11/08 A3017 RMK AO2 SLP229 T01060083
PAFE 230856Z AUTO 06004KT 10SM OVC050 09/08 A3016 RMK AO2 SLP227 T00940083 401670094 58001
PAFE 230756Z AUTO 06005KT 10SM OVC060 09/08 A3018 RMK AO2 SLP231 T00940083
PAFE 230656Z AUTO 06004KT 10SM CLR 10/08 A3017 RMK AO2 SLP230 T01000083
PAFE 222356Z AUTO 28008KT 10SM CLR 15/09 A3017 RMK AO2 SLP230 T01500094 10161 20133 58004
PAFE 222256Z AUTO 29006KT 10SM FEW049 16/10 A3018 RMK AO2 SLP230 T01610100
PAFE 222156Z AUTO 24004KT 10SM OVC049 16/10 A3018 RMK AO2 SLP233 T01560100
PAFE 222056Z AUTO VRB04KT 10SM OVC049 14/10 A3018 RMK AO2 SLP233 T01440100 51004
PAFE 221956Z AUTO 22004KT 10SM OVC047 14/10 A3018 RMK AO2 SLP233 T01390100
PAFE 221856Z AUTO 25003KT 10SM SCT031 OVC043 13/10 A3018 RMK AO2 SLP232 T01330100
PAFE 221819Z AUTO 00000KT 10SM FEW022 SCT033 OVC043 14/10 A3017 RMK AO2
PAFE 221756Z AUTO 19004KT 10SM OVC020 13/09 A3017 RMK AO2 SLP229 T01330094 10139 20117 51008
PAFE 221656Z AUTO 18004KT 10SM FEW011 BKN020 OVC025 13/10 A3017 RMK AO2 SLP227 T01280100
PAFE 221556Z AUTO 13004KT 10SM OVC022 12/10 A3016 RMK AO2 SLP224 T01220100
PAFE 221456Z AUTO 10003KT 10SM BKN020 OVC033 12/10 A3015 RMK AO2 SLP221 T01220100 53005
PAFE 221435Z AUTO 09004KT 10SM FEW022 OVC031 12/10 A3015 RMK AO2
PAFE 221256Z AUTO 10004KT 10SM OVC024 12/10 A3014 RMK AO2 SLP216 T01170100
PAFE 221249Z AUTO 11005KT 10SM BKN024 OVC033 12/10 A3013 RMK AO2
PAFE 221156Z AUTO 08004KT 10SM OVC031 12/10 A3013 RMK AO2 SLP214 7//// T01170100 10133 20111 53007
PAFE 221115Z AUTO 07004KT 10SM BKN027 OVC033 12/10 A3012 RMK AO2
PAFE 220956Z AUTO 09005KT 10SM FEW033 11/09 A3011 RMK AO2 SLP208 T01110094
PAFE 220856Z AUTO 08007KT 10SM CLR 11/09 A3011 RMK AO2 SLP207 T01110094 401780111 53011
PAFE 220756Z AUTO 08006KT 10SM FEW095 11/09 A3009 RMK AO2 SLP203 T01110094
PAFE 220456Z AUTO 13007KT 10SM CLR 16/11 A3006 RMK AO2 SLPNO T01610106
PAFE 220356Z AUTO 16004KT 10SM CLR 17/11 A3005 RMK AO2 SLPNO T01720111
PAFE 220256Z AUTO 00000KT 10SM CLR 17/11 A3004 RMK AO2 SLPNO T01720111 55000
PAFE 220156Z AUTO 13005KT 10SM CLR 17/11 A3004 RMK AO2 SLPNO T01720111
PAFE 220056Z AUTO 24004KT 10SM FEW110 16/11 A3004 RMK AO2 SLPNO T01610111
PAFE 212356Z AUTO 26005KT 10SM BKN120 14/11 A3004 RMK AO2 SLPNO 6//// T01440111 51003